Time;durP1;ratioP1;P1;durP2;ratioP2;P2;SDS_P1;SDS_P2;PMS_P1;PMS_P2;Temp;Humidity;BMP_temperature;BMP_pressure;BME280_temperature;BME280_humidity;BME280_pressure;Samples;Min_cycle;Max_cycle;Signal;HPM_P1;HPM_P2
2021/05/14 00:01:22;;;;;;;23.15;3.80;;;12.60;99.90;;;;;;5048530;28;20052;-46
2021/05/14 00:04:26;;;;;;;24.17;3.65;;;12.70;99.90;;;;;;5052900;28;20056;-47
2021/05/14 00:07:30;;;;;;;23.85;4.45;;;12.80;99.90;;;;;;5052536;28;20430;-46
2021/05/14 00:10:38;;;;;;;27.38;5.70;;;12.80;99.90;;;;;;5051138;28;20055;-46
2021/05/14 00:13:42;;;;;;;25.08;4.50;;;12.70;99.90;;;;;;5052921;28;20051;-48
2021/05/14 00:16:46;;;;;;;17.55;3.22;;;12.80;99.90;;;;;;5052896;28;20056;-46
2021/05/14 00:19:50;;;;;;;15.07;3.15;;;12.90;99.90;;;;;;5051183;28;20116;-46
2021/05/14 00:22:54;;;;;;;22.45;4.65;;;13.00;99.90;;;;;;5052122;28;20039;-46
2021/05/14 00:25:58;;;;;;;25.70;4.20;;;12.90;99.90;;;;;;5039841;28;20439;-46
2021/05/14 00:29:03;;;;;;;32.13;4.65;;;12.90;99.90;;;;;;5051479;28;20048;-47
2021/05/14 00:32:07;;;;;;;25.67;4.57;;;13.00;99.90;;;;;;5051246;28;20410;-48
2021/05/14 00:35:12;;;;;;;16.55;3.53;;;12.90;99.90;;;;;;5052365;28;20040;-45
2021/05/14 00:38:16;;;;;;;23.23;4.65;;;13.00;99.90;;;;;;5038093;28;20036;-46
2021/05/14 00:41:20;;;;;;;21.52;3.92;;;12.90;99.90;;;;;;5050853;28;20431;-46
2021/05/14 00:44:37;;;;;;;25.00;3.95;;;12.90;99.90;;;;;;5052178;28;20051;-46
2021/05/14 00:47:42;;;;;;;16.27;2.78;;;12.90;99.90;;;;;;5045728;28;20036;-46
2021/05/14 00:50:46;;;;;;;18.98;4.32;;;12.80;99.90;;;;;;5035804;28;20046;-46
2021/05/14 00:53:50;;;;;;;24.60;4.05;;;12.80;99.90;;;;;;5051522;28;20040;-46
2021/05/14 00:56:54;;;;;;;22.58;3.40;;;12.90;99.90;;;;;;5047249;28;20514;-46
2021/05/14 00:59:59;;;;;;;19.42;3.42;;;12.80;99.90;;;;;;5040544;28;20044;-46
2021/05/14 01:03:03;;;;;;;19.45;3.90;;;12.70;99.90;;;;;;5041548;28;20048;-46
2021/05/14 01:06:06;;;;;;;15.80;3.38;;;12.70;99.90;;;;;;5031793;28;20538;-47
2021/05/14 01:09:12;;;;;;;23.55;3.92;;;12.50;99.90;;;;;;5030534;28;20597;-46
2021/05/14 01:12:16;;;;;;;25.42;3.83;;;12.50;99.90;;;;;;5030736;28;20041;-46
2021/05/14 01:15:20;;;;;;;22.73;4.25;;;12.40;99.90;;;;;;5035547;28;20048;-46
2021/05/14 01:18:25;;;;;;;18.08;3.33;;;12.40;99.90;;;;;;5050395;28;20052;-46
2021/05/14 01:21:29;;;;;;;28.10;4.60;;;12.40;99.90;;;;;;5049962;28;20406;-47
2021/05/14 01:24:34;;;;;;;19.77;3.45;;;12.40;99.90;;;;;;5051338;28;20039;-52
2021/05/14 01:27:38;;;;;;;23.85;3.58;;;12.40;99.90;;;;;;5050454;28;20048;-53
2021/05/14 01:30:43;;;;;;;23.00;3.47;;;12.40;99.90;;;;;;5037801;28;20056;-51
2021/05/14 01:33:48;;;;;;;22.35;3.50;;;12.40;99.90;;;;;;5036250;28;20411;-47
2021/05/14 01:36:53;;;;;;;23.35;4.10;;;12.40;99.90;;;;;;5047521;28;20053;-48
2021/05/14 01:39:56;;;;;;;23.00;4.18;;;12.40;99.90;;;;;;5050477;28;20051;-51
2021/05/14 01:43:01;;;;;;;19.92;4.03;;;12.20;99.90;;;;;;5050746;28;20044;-52
2021/05/14 01:46:05;;;;;;;20.83;3.47;;;12.10;99.90;;;;;;5050999;28;20056;-51
2021/05/14 01:49:09;;;;;;;30.88;4.43;;;12.10;99.90;;;;;;5038519;28;20059;-49
2021/05/14 01:52:15;;;;;;;22.88;3.85;;;12.00;99.90;;;;;;5031180;28;20048;-46
2021/05/14 01:55:20;;;;;;;27.95;3.90;;;12.00;99.90;;;;;;5031146;28;20578;-48
2021/05/14 01:58:24;;;;;;;22.50;4.18;;;12.00;99.90;;;;;;5029778;28;20044;-50
2021/05/14 02:01:28;;;;;;;29.20;6.70;;;12.00;99.90;;;;;;5036969;28;20044;-49
2021/05/14 02:04:32;;;;;;;26.67;3.85;;;12.10;99.90;;;;;;5050908;28;20040;-51
2021/05/14 02:07:37;;;;;;;26.70;4.22;;;12.00;99.90;;;;;;5036975;28;20045;-46
2021/05/14 02:10:41;;;;;;;26.13;4.88;;;12.00;99.90;;;;;;5030619;28;20044;-47
2021/05/14 02:13:45;;;;;;;29.65;3.95;;;12.10;99.90;;;;;;5030822;28;20045;-50
2021/05/14 02:16:50;;;;;;;23.90;4.55;;;12.00;99.90;;;;;;5028367;28;20419;-50
2021/05/14 02:19:55;;;;;;;33.92;5.13;;;11.90;99.90;;;;;;5029694;28;20041;-54
2021/05/14 02:23:00;;;;;;;23.27;4.97;;;12.00;99.90;;;;;;5030627;28;20044;-47
2021/05/14 02:26:04;;;;;;;24.52;4.63;;;12.00;99.90;;;;;;5049443;28;20056;-47
2021/05/14 02:29:09;;;;;;;25.65;4.55;;;12.00;99.90;;;;;;5034013;28;20657;-49
2021/05/14 02:32:14;;;;;;;21.73;3.58;;;12.00;99.90;;;;;;5043808;28;20522;-47
2021/05/14 02:35:18;;;;;;;26.50;4.05;;;12.10;99.90;;;;;;5047438;28;20280;-52
2021/05/14 02:38:22;;;;;;;21.90;3.72;;;12.20;99.90;;;;;;5042261;28;20411;-46
2021/05/14 02:41:27;;;;;;;20.05;3.80;;;12.30;99.90;;;;;;5049956;28;20039;-47
2021/05/14 02:44:31;;;;;;;22.23;4.68;;;12.30;99.90;;;;;;5042158;28;20406;-49
2021/05/14 02:47:35;;;;;;;22.27;4.07;;;12.40;99.90;;;;;;5030322;28;20045;-50
2021/05/14 02:50:40;;;;;;;20.15;3.47;;;12.30;99.90;;;;;;5035362;28;20055;-48
2021/05/14 02:53:44;;;;;;;23.17;4.18;;;12.40;99.90;;;;;;5047661;28;20047;-51
2021/05/14 02:56:49;;;;;;;32.17;3.85;;;12.20;99.90;;;;;;5048139;28;20043;-47
2021/05/14 02:59:53;;;;;;;24.85;3.17;;;12.10;99.90;;;;;;5048730;28;20048;-46
2021/05/14 03:02:58;;;;;;;15.90;2.95;;;12.30;99.90;;;;;;5048548;28;20048;-46
2021/05/14 03:06:02;;;;;;;30.08;4.05;;;12.30;99.90;;;;;;5037796;28;20040;-46
2021/05/14 03:09:06;;;;;;;22.88;4.30;;;12.40;99.90;;;;;;5045793;28;20048;-46
2021/05/14 03:12:10;;;;;;;20.63;4.00;;;12.40;99.90;;;;;;5044752;28;20052;-46
2021/05/14 03:15:14;;;;;;;34.65;4.57;;;12.40;99.90;;;;;;5047930;28;20048;-47
2021/05/14 03:18:19;;;;;;;21.85;3.35;;;12.30;99.90;;;;;;5047871;28;20044;-46
2021/05/14 03:21:23;;;;;;;21.77;3.65;;;12.40;99.90;;;;;;5036555;28;20043;-47
2021/05/14 03:24:27;;;;;;;20.05;3.38;;;12.40;99.90;;;;;;5048009;28;20395;-47
2021/05/14 03:27:31;;;;;;;29.73;4.75;;;12.40;99.90;;;;;;5047513;28;20514;-47
2021/05/14 03:30:35;;;;;;;28.27;3.58;;;12.40;99.90;;;;;;5049111;28;20048;-46
2021/05/14 03:33:40;;;;;;;22.60;3.78;;;12.40;99.90;;;;;;5047835;28;20044;-47
2021/05/14 03:36:44;;;;;;;24.17;3.92;;;12.40;99.90;;;;;;5047638;28;20048;-48
2021/05/14 03:39:52;;;;;;;14.93;3.13;;;12.40;99.90;;;;;;5049044;28;20538;-52
2021/05/14 03:42:58;;;;;;;22.73;3.58;;;12.40;99.90;;;;;;5048391;28;20044;-46
2021/05/14 03:46:02;;;;;;;14.60;3.35;;;12.30;99.90;;;;;;5047794;28;20048;-47
2021/05/14 03:49:06;;;;;;;25.63;3.78;;;12.40;99.90;;;;;;5045370;28;20052;-47
2021/05/14 03:52:12;;;;;;;16.58;3.42;;;12.30;99.90;;;;;;5029148;28;20396;-51
2021/05/14 03:55:19;;;;;;;17.98;4.03;;;12.30;99.90;;;;;;5027779;28;20036;-46
2021/05/14 03:58:23;;;;;;;19.38;3.80;;;12.30;99.90;;;;;;5028178;28;20048;-46
2021/05/14 04:01:28;;;;;;;23.50;4.55;;;12.30;99.90;;;;;;5035380;28;20044;-46
2021/05/14 04:04:34;;;;;;;19.67;3.13;;;12.30;99.90;;;;;;5047251;28;20048;-49
2021/05/14 04:07:39;;;;;;;20.40;3.22;;;12.30;99.90;;;;;;5034852;28;20507;-47
2021/05/14 04:17:10;;;;;;;19.80;3.78;;;12.50;99.90;;;;;;5047435;28;20063;-46
2021/05/14 04:20:16;;;;;;;16.50;3.45;;;12.50;99.90;;;;;;5048112;28;20036;-49
2021/05/14 04:23:20;;;;;;;16.20;3.10;;;12.50;99.90;;;;;;5048064;28;20043;-47
2021/05/14 04:26:24;;;;;;;20.35;3.28;;;12.60;99.90;;;;;;5047570;28;20052;-46
2021/05/14 04:29:28;;;;;;;20.75;4.28;;;12.60;99.90;;;;;;5048278;28;20068;-47
2021/05/14 04:32:32;;;;;;;20.35;3.55;;;12.40;99.90;;;;;;5048207;28;20052;-47
2021/05/14 04:35:36;;;;;;;28.92;5.03;;;12.10;99.90;;;;;;5030335;28;20044;-48
2021/05/14 04:38:40;;;;;;;22.23;3.17;;;12.10;99.90;;;;;;5030769;28;20056;-50
2021/05/14 04:41:44;;;;;;;11.32;2.72;;;12.20;99.90;;;;;;5032494;28;20064;-47
2021/05/14 04:44:48;;;;;;;13.13;3.75;;;12.40;99.90;;;;;;5031067;28;20510;-48
2021/05/14 04:47:52;;;;;;;17.67;3.03;;;12.40;99.90;;;;;;5030923;28;20056;-47
2021/05/14 04:50:57;;;;;;;12.82;3.47;;;12.50;99.90;;;;;;5032277;28;20052;-47
2021/05/14 04:54:01;;;;;;;17.38;3.47;;;12.50;99.90;;;;;;5031097;28;20036;-46
2021/05/14 04:57:06;;;;;;;20.20;3.47;;;12.50;99.90;;;;;;5030909;28;20049;-47
2021/05/14 05:00:10;;;;;;;24.63;3.90;;;12.60;99.90;;;;;;5048414;28;20052;-47
2021/05/14 05:03:14;;;;;;;20.80;3.65;;;12.70;99.90;;;;;;5048683;28;20056;-46
2021/05/14 05:06:19;;;;;;;15.52;2.65;;;12.70;99.90;;;;;;5046231;28;20040;-46
2021/05/14 05:09:23;;;;;;;15.27;2.65;;;12.80;99.90;;;;;;5049431;28;20056;-47
2021/05/14 05:12:27;;;;;;;22.67;3.95;;;12.90;99.90;;;;;;5031429;28;20056;-48
2021/05/14 05:15:32;;;;;;;17.02;3.55;;;12.90;99.90;;;;;;5031979;28;20052;-46
2021/05/14 05:18:36;;;;;;;17.90;2.95;;;13.00;99.90;;;;;;5018984;28;20044;-45
2021/05/14 05:21:41;;;;;;;22.67;3.88;;;13.10;99.90;;;;;;5046390;28;20060;-46
2021/05/14 05:24:45;;;;;;;20.60;3.33;;;13.20;99.90;;;;;;5030336;28;20511;-47
2021/05/14 05:27:50;;;;;;;15.40;2.53;;;13.40;99.90;;;;;;5031471;28;20048;-46
2021/05/14 05:30:55;;;;;;;25.40;3.78;;;13.50;99.90;;;;;;5034372;28;20032;-47
2021/05/14 05:34:00;;;;;;;11.38;2.55;;;13.60;99.90;;;;;;5029315;28;20045;-46
2021/05/14 05:37:04;;;;;;;20.20;3.47;;;13.70;99.90;;;;;;5029612;28;20045;-46
2021/05/14 05:40:08;;;;;;;18.23;2.88;;;13.60;99.90;;;;;;5030266;28;20483;-46
2021/05/14 05:43:13;;;;;;;14.55;2.92;;;13.80;99.90;;;;;;5031183;28;20549;-46
2021/05/14 05:46:19;;;;;;;17.38;3.22;;;13.90;99.90;;;;;;5033076;28;20542;-47
2021/05/14 05:49:23;;;;;;;16.10;2.33;;;14.00;99.90;;;;;;5036175;28;20044;-51
2021/05/14 05:52:27;;;;;;;16.20;2.60;;;14.40;99.90;;;;;;5026230;28;20052;-46
2021/05/14 05:55:32;;;;;;;12.15;2.35;;;14.80;99.90;;;;;;5035486;28;20043;-49
2021/05/14 05:58:36;;;;;;;15.43;3.13;;;15.70;99.90;;;;;;5038091;28;20032;-46
2021/05/14 06:01:41;;;;;;;20.40;3.83;;;15.50;99.90;;;;;;5032874;28;20422;-46
2021/05/14 06:04:45;;;;;;;22.85;3.47;;;15.00;99.90;;;;;;5037302;28;20045;-45
2021/05/14 06:07:50;;;;;;;12.45;2.35;;;14.70;99.90;;;;;;5033730;28;20052;-46
2021/05/14 06:10:54;;;;;;;16.30;2.65;;;14.50;99.90;;;;;;5036976;28;20047;-46
2021/05/14 06:13:59;;;;;;;14.73;3.10;;;14.50;99.90;;;;;;5029842;28;20052;-46
2021/05/14 06:17:11;;;;;;;17.08;3.22;;;14.50;99.90;;;;;;5030936;28;20052;-46
2021/05/14 06:20:18;;;;;;;18.00;2.83;;;14.40;99.90;;;;;;5044115;28;20063;-46
2021/05/14 06:23:22;;;;;;;13.80;2.72;;;14.40;99.90;;;;;;5038757;28;20040;-49
2021/05/14 06:26:27;;;;;;;16.90;2.80;;;14.30;99.90;;;;;;5038398;28;20040;-45
2021/05/14 06:29:30;;;;;;;12.77;2.53;;;14.40;99.90;;;;;;5035839;28;20414;-47
2021/05/14 06:32:35;;;;;;;12.85;2.67;;;14.30;99.90;;;;;;5037269;28;20048;-45
2021/05/14 06:35:40;;;;;;;19.10;3.22;;;14.40;99.90;;;;;;5029733;28;20204;-48
2021/05/14 06:38:45;;;;;;;12.90;2.55;;;14.50;99.90;;;;;;5035700;28;20048;-45
2021/05/14 06:41:49;;;;;;;18.35;2.50;;;14.70;99.90;;;;;;5036115;28;20039;-46
2021/05/14 06:44:54;;;;;;;22.42;2.60;;;14.80;99.90;;;;;;5039617;28;20050;-47
2021/05/14 06:48:06;;;;;;;22.15;2.55;;;14.90;99.90;;;;;;5034799;28;20045;-46
2021/05/14 06:51:11;;;;;;;13.57;2.33;;;15.80;99.90;;;;;;5035834;28;20048;-47
2021/05/14 06:54:15;;;;;;;12.95;2.97;;;17.20;99.90;;;;;;5031134;28;20064;-47
2021/05/14 06:57:20;;;;;;;12.98;2.83;;;18.90;99.90;;;;;;5042200;28;20057;-47
2021/05/14 07:00:24;;;;;;;10.75;2.15;;;20.80;99.90;;;;;;5038051;28;20036;-47
2021/05/14 07:03:29;;;;;;;10.52;2.47;;;20.90;99.90;;;;;;5042195;28;20044;-46
2021/05/14 07:06:33;;;;;;;10.90;2.55;;;20.80;99.90;;;;;;5040099;28;20044;-47
2021/05/14 07:09:36;;;;;;;12.60;2.20;;;21.00;99.90;;;;;;5044413;28;20124;-50
2021/05/14 07:12:40;;;;;;;20.58;8.05;;;21.40;99.90;;;;;;5033950;28;20036;-49
2021/05/14 07:15:45;;;;;;;9.02;2.25;;;21.30;99.90;;;;;;5032254;28;20052;-49
2021/05/14 07:18:48;;;;;;;8.80;2.83;;;21.50;99.90;;;;;;5034834;28;20040;-48
2021/05/14 07:21:53;;;;;;;11.00;1.80;;;21.90;99.90;;;;;;5037026;28;20044;-50
2021/05/14 07:24:57;;;;;;;9.30;1.75;;;21.90;99.60;;;;;;5041234;28;20040;-48
2021/05/14 07:28:01;;;;;;;8.40;2.00;;;22.30;98.60;;;;;;5038164;28;20043;-51
2021/05/14 07:31:06;;;;;;;11.57;2.97;;;22.80;97.50;;;;;;5030099;28;20052;-52
2021/05/14 07:34:10;;;;;;;10.60;2.72;;;23.10;96.90;;;;;;5037792;28;20041;-51
2021/05/14 07:37:14;;;;;;;11.88;2.65;;;23.40;97.50;;;;;;5047229;28;20048;-53
2021/05/14 07:40:18;;;;;;;10.18;2.25;;;23.70;95.60;;;;;;5043702;28;20048;-50
2021/05/14 07:43:22;;;;;;;12.10;2.55;;;22.60;96.90;;;;;;5034484;28;20044;-48
2021/05/14 07:46:26;;;;;;;11.88;2.25;;;21.30;97.10;;;;;;5028182;28;20048;-51
2021/05/14 07:49:31;;;;;;;6.93;1.80;;;20.30;99.90;;;;;;5033556;28;20052;-51
2021/05/14 07:52:36;;;;;;;10.73;2.38;;;19.90;99.90;;;;;;5037788;28;20396;-52
2021/05/14 07:55:40;;;;;;;9.77;1.90;;;19.40;99.90;;;;;;5042779;28;20052;-51
2021/05/14 07:58:45;;;;;;;8.32;1.75;;;18.40;99.90;;;;;;5040210;28;20044;-50
2021/05/14 08:01:49;;;;;;;8.52;2.50;;;18.50;99.90;;;;;;5027817;28;20029;-49
2021/05/14 08:04:53;;;;;;;15.13;2.05;;;18.30;99.90;;;;;;5028221;28;20112;-51
2021/05/14 08:07:59;;;;;;;10.52;2.15;;;17.20;99.90;;;;;;5044678;28;20128;-50
2021/05/14 08:11:04;;;;;;;13.73;2.70;;;17.60;99.90;;;;;;5043525;28;20036;-49
2021/05/14 08:14:08;;;;;;;6.03;2.05;;;18.60;99.90;;;;;;5037152;28;20431;-51
2021/05/14 08:17:12;;;;;;;9.73;2.38;;;19.10;99.90;;;;;;5036284;28;20045;-49
2021/05/14 08:20:16;;;;;;;9.27;1.55;;;19.60;99.90;;;;;;5032718;28;20048;-48
2021/05/14 08:23:21;;;;;;;7.82;2.28;;;20.00;99.60;;;;;;5031952;28;20251;-47
2021/05/14 08:26:25;;;;;;;8.95;1.63;;;21.00;98.60;;;;;;5033025;28;20052;-50
2021/05/14 08:29:30;;;;;;;8.00;1.52;;;21.00;98.80;;;;;;5048874;28;20048;-47
2021/05/14 08:32:34;;;;;;;9.75;2.05;;;20.90;98.80;;;;;;5038663;28;20056;-48
2021/05/14 08:35:39;;;;;;;13.98;2.10;;;20.00;99.40;;;;;;5025545;28;20052;-47
2021/05/14 08:38:44;;;;;;;8.70;1.80;;;19.60;99.90;;;;;;5039640;28;20039;-46
2021/05/14 08:41:48;;;;;;;8.50;2.03;;;19.90;99.30;;;;;;5036384;28;20049;-53
2021/05/14 08:44:52;;;;;;;10.95;2.10;;;20.10;99.90;;;;;;5034059;28;20044;-50
2021/05/14 08:47:57;;;;;;;10.65;2.22;;;21.00;99.10;;;;;;5032402;28;20060;-52
2021/05/14 08:51:13;;;;;;;10.57;2.17;;;20.40;98.70;;;;;;5032399;28;20048;-49
2021/05/14 08:54:17;;;;;;;10.25;1.88;;;21.00;99.00;;;;;;5036844;28;20404;-48
2021/05/14 08:57:21;;;;;;;9.70;2.10;;;21.40;99.40;;;;;;5047299;28;20399;-49
2021/05/14 09:00:26;;;;;;;7.65;1.30;;;22.20;97.80;;;;;;5047315;28;20052;-52
2021/05/14 09:03:30;;;;;;;13.05;1.70;;;22.50;96.20;;;;;;5041449;28;20197;-47
2021/05/14 09:06:39;;;;;;;7.25;1.80;;;21.90;97.10;;;;;;5049773;28;20075;-51
2021/05/14 09:10:04;;;;;;;7.47;1.90;;;21.40;97.30;;;;;;5043070;28;20402;-47
2021/05/14 09:13:12;;;;;;;9.23;1.95;;;22.10;96.70;;;;;;5030981;28;20044;-48
2021/05/14 09:16:37;;;;;;;13.02;2.33;;;21.90;97.70;;;;;;5045398;28;20045;-53
2021/05/14 09:19:43;;;;;;;13.75;1.50;;;20.90;97.60;;;;;;5046337;28;20040;-49
2021/05/14 09:22:48;;;;;;;9.18;1.88;;;21.00;98.10;;;;;;5034901;28;20283;-47
2021/05/14 09:26:01;;;;;;;7.22;1.92;;;22.50;96.40;;;;;;5034561;28;20447;-53
2021/05/14 09:29:05;;;;;;;16.45;2.15;;;20.40;98.80;;;;;;5032806;28;20419;-50
2021/05/14 09:32:30;;;;;;;5.70;1.60;;;21.00;98.20;;;;;;5033387;28;20049;-51
2021/05/14 09:35:34;;;;;;;9.45;1.77;;;21.80;97.40;;;;;;5030401;28;20404;-47
2021/05/14 09:38:43;;;;;;;6.50;1.55;;;21.30;97.50;;;;;;5048560;28;20044;-47
2021/05/14 09:41:48;;;;;;;4.95;2.10;;;21.90;96.80;;;;;;5033373;28;20040;-53
2021/05/14 09:45:12;;;;;;;7.75;1.60;;;23.10;96.50;;;;;;5029096;28;20522;-47
2021/05/14 09:48:18;;;;;;;6.78;1.60;;;24.60;94.10;;;;;;5041723;28;20072;-48
2021/05/14 09:51:23;;;;;;;8.65;1.55;;;24.60;94.20;;;;;;5038194;28;20060;-49
2021/05/14 09:54:28;;;;;;;7.38;1.83;;;24.80;93.20;;;;;;5036898;28;20044;-47
2021/05/14 09:57:33;;;;;;;5.80;1.92;;;24.20;93.40;;;;;;5038027;28;20053;-49
2021/05/14 10:00:37;;;;;;;5.82;1.70;;;24.50;94.30;;;;;;5030161;28;20037;-51
2021/05/14 10:03:42;;;;;;;6.00;2.15;;;25.00;93.20;;;;;;5030773;28;20040;-47
2021/05/14 10:06:46;;;;;;;6.05;1.67;;;24.20;92.40;;;;;;5035623;28;20518;-47
2021/05/14 10:09:53;;;;;;;5.22;1.60;;;25.30;93.00;;;;;;5050295;28;20063;-50
2021/05/14 10:12:58;;;;;;;10.00;2.58;;;25.70;91.60;;;;;;5050847;28;20554;-47
2021/05/14 10:16:04;;;;;;;6.07;1.60;;;22.30;93.20;;;;;;5046472;28;20056;-49
2021/05/14 10:19:09;;;;;;;6.93;1.58;;;22.20;93.40;;;;;;5042457;28;20040;-48
2021/05/14 10:22:14;;;;;;;9.85;2.00;;;23.70;94.00;;;;;;5030617;28;20041;-52
2021/05/14 10:25:34;;;;;;;7.22;1.90;;;24.70;91.30;;;;;;5030754;28;20037;-50
2021/05/14 10:28:41;;;;;;;7.15;2.13;;;25.60;91.00;;;;;;5040147;28;20052;-49
2021/05/14 10:31:47;;;;;;;8.82;1.63;;;22.90;92.20;;;;;;5035243;28;20403;-47
2021/05/14 10:35:03;;;;;;;5.85;1.50;;;22.30;93.60;;;;;;5030590;28;20052;-47
2021/05/14 10:38:08;;;;;;;7.22;1.50;;;22.70;93.80;;;;;;5028826;28;20420;-48
2021/05/14 10:41:26;;;;;;;7.68;2.03;;;22.80;94.10;;;;;;5029527;28;20036;-47
2021/05/14 10:44:54;;;;;;;10.85;2.30;;;21.60;95.20;;;;;;5030658;28;20048;-47
2021/05/14 10:47:59;;;;;;;5.70;1.55;;;22.40;93.90;;;;;;5029711;28;20060;-50
2021/05/14 10:51:05;;;;;;;5.97;1.45;;;23.10;93.60;;;;;;5028722;28;20052;-47
2021/05/14 10:54:09;;;;;;;6.82;1.80;;;24.10;93.40;;;;;;5030116;28;20048;-47
2021/05/14 10:57:14;;;;;;;7.15;1.95;;;24.40;92.80;;;;;;5028836;28;20048;-49
2021/05/14 11:00:29;;;;;;;7.55;2.15;;;23.80;93.20;;;;;;5016472;28;20037;-48
2021/05/14 11:03:34;;;;;;;7.78;2.03;;;22.70;93.80;;;;;;5029841;28;20142;-49
2021/05/14 11:06:51;;;;;;;5.25;1.67;;;23.10;93.10;;;;;;5023197;28;20040;-51
2021/05/14 11:10:37;;;;;;;6.00;1.65;;;23.60;93.60;;;;;;5036365;28;20040;-51
2021/05/14 11:13:53;;;;;;;6.07;1.63;;;23.10;93.80;;;;;;5014647;28;20048;-51
2021/05/14 11:16:58;;;;;;;9.38;1.75;;;22.20;94.30;;;;;;5025526;28;20033;-50
2021/05/14 11:20:02;;;;;;;11.85;2.47;;;21.50;95.70;;;;;;5041719;28;20412;-48
2021/05/14 11:23:28;;;;;;;9.10;2.10;;;21.60;94.90;;;;;;5028665;28;20760;-47
2021/05/14 11:26:32;;;;;;;7.60;1.95;;;22.90;95.00;;;;;;5041171;28;20044;-49
2021/05/14 11:29:48;;;;;;;9.95;1.80;;;22.60;93.60;;;;;;5045843;28;20529;-50
2021/05/14 11:32:54;;;;;;;7.38;1.92;;;23.00;94.40;;;;;;5042299;28;20580;-49
2021/05/14 11:35:58;;;;;;;10.35;2.05;;;21.20;93.70;;;;;;5039728;28;20056;-48
2021/05/14 11:39:03;;;;;;;6.72;1.88;;;20.30;95.50;;;;;;5038767;28;20048;-48
2021/05/14 11:42:16;;;;;;;5.35;1.80;;;20.90;95.80;;;;;;5035195;28;20057;-48
2021/05/14 11:45:31;;;;;;;10.77;2.33;;;20.80;95.20;;;;;;5036070;28;20048;-52
2021/05/14 11:48:35;;;;;;;11.30;2.40;;;20.00;95.80;;;;;;5043387;28;20387;-47
2021/05/14 11:51:39;;;;;;;12.10;2.25;;;19.20;96.90;;;;;;5038759;28;20052;-47
2021/05/14 11:54:43;;;;;;;9.00;2.15;;;19.40;97.60;;;;;;5027548;28;20048;-50
2021/05/14 11:57:58;;;;;;;8.38;2.30;;;19.50;98.20;;;;;;5034103;28;20113;-53
2021/05/14 12:01:04;;;;;;;5.47;1.63;;;19.90;97.20;;;;;;5035613;28;20517;-49
2021/05/14 12:04:09;;;;;;;4.72;1.63;;;20.50;96.80;;;;;;5035961;28;20048;-47
2021/05/14 12:07:22;;;;;;;5.68;1.63;;;20.40;95.30;;;;;;5040513;28;20048;-47
2021/05/14 12:10:26;;;;;;;14.13;2.10;;;20.20;95.70;;;;;;5037230;28;20052;-52
2021/05/14 12:13:32;;;;;;;8.38;1.60;;;20.10;95.60;;;;;;5037707;28;20069;-51
2021/05/14 12:16:37;;;;;;;7.80;1.65;;;20.10;97.10;;;;;;5024711;28;20040;-48
2021/05/14 12:19:48;;;;;;;7.07;1.50;;;19.70;96.40;;;;;;5040760;28;20048;-47
2021/05/14 12:23:04;;;;;;;5.28;1.52;;;19.50;96.20;;;;;;5030284;28;20036;-48
2021/05/14 12:26:09;;;;;;;4.38;1.38;;;19.10;97.00;;;;;;5033666;28;20044;-50
2021/05/14 12:29:24;;;;;;;4.70;1.20;;;18.80;97.00;;;;;;5032423;28;20048;-50
2021/05/14 12:32:28;;;;;;;6.15;1.50;;;18.80;97.50;;;;;;5024915;28;20056;-51
2021/05/14 12:35:32;;;;;;;7.10;1.90;;;18.80;97.60;;;;;;4979433;28;20040;-49
2021/05/14 12:38:39;;;;;;;5.50;1.23;;;18.40;98.40;;;;;;4990255;28;20430;-52
2021/05/14 12:41:50;;;;;;;6.68;1.77;;;18.60;99.00;;;;;;5005816;28;20048;-47
2021/05/14 12:44:56;;;;;;;7.63;1.90;;;18.80;98.50;;;;;;5013954;28;20041;-49
2021/05/14 12:48:00;;;;;;;7.93;1.75;;;18.70;98.50;;;;;;5021654;28;20774;-52
2021/05/14 12:51:04;;;;;;;8.73;1.70;;;18.60;98.90;;;;;;5021956;28;20392;-48
2021/05/14 12:54:08;;;;;;;5.53;1.70;;;18.60;99.00;;;;;;5015456;28;20052;-52
2021/05/14 12:57:43;;;;;;;5.18;2.05;;;18.50;98.70;;;;;;5016256;28;20132;-50
2021/05/14 13:00:50;;;;;;;9.40;2.22;;;18.80;99.50;;;;;;5007650;28;20044;-48
2021/05/14 13:04:08;;;;;;;7.90;1.50;;;18.50;99.00;;;;;;5013753;28;20615;-48
2021/05/14 13:07:13;;;;;;;5.55;1.38;;;18.40;99.40;;;;;;5024507;28;20135;-51
2021/05/14 13:10:49;;;;;;;8.07;1.83;;;18.10;99.40;;;;;;5013919;28;20435;-52
2021/05/14 13:13:54;;;;;;;8.85;1.55;;;17.90;99.20;;;;;;5019101;28;20611;-53
2021/05/14 13:17:00;;;;;;;9.20;1.90;;;17.90;99.50;;;;;;5025155;28;20045;-49
2021/05/14 13:20:04;;;;;;;12.68;1.83;;;17.80;99.90;;;;;;5028485;28;20052;-53
2021/05/14 13:23:09;;;;;;;7.75;1.50;;;17.70;99.90;;;;;;5011706;28;20052;-53
2021/05/14 13:26:15;;;;;;;10.00;2.13;;;17.80;99.90;;;;;;5047819;28;20040;-50
2021/05/14 13:29:19;;;;;;;10.70;1.88;;;17.50;99.90;;;;;;5044022;28;20048;-48
2021/05/14 13:32:23;;;;;;;9.23;1.90;;;17.80;99.90;;;;;;5050047;28;20059;-51
2021/05/14 13:35:27;;;;;;;9.20;2.60;;;17.90;99.90;;;;;;5042105;28;20044;-47
2021/05/14 13:38:31;;;;;;;13.30;2.30;;;18.10;99.90;;;;;;5038980;28;20051;-50
2021/05/14 13:41:35;;;;;;;10.57;2.20;;;18.30;99.90;;;;;;5049762;28;20040;-48
2021/05/14 13:44:39;;;;;;;7.22;2.25;;;18.80;99.90;;;;;;5050633;28;20044;-53
2021/05/14 13:47:43;;;;;;;9.75;2.58;;;19.10;99.90;;;;;;5050620;28;20067;-49
2021/05/14 13:50:47;;;;;;;9.05;2.47;;;19.00;99.90;;;;;;5043744;28;20391;-47
2021/05/14 13:53:52;;;;;;;11.77;1.85;;;18.90;99.90;;;;;;5036388;28;20048;-47
2021/05/14 13:56:57;;;;;;;7.95;2.72;;;18.60;99.90;;;;;;5050568;28;20514;-47
2021/05/14 14:00:03;;;;;;;13.57;2.38;;;18.50;99.90;;;;;;5049537;28;20060;-48
2021/05/14 14:03:17;;;;;;;10.48;3.30;;;17.90;99.90;;;;;;5041293;28;20052;-46
2021/05/14 14:06:21;;;;;;;12.93;1.73;;;16.90;99.90;;;;;;5050568;28;20044;-47
2021/05/14 14:09:26;;;;;;;8.98;2.08;;;16.70;99.90;;;;;;5039637;28;20044;-49
2021/05/14 14:12:30;;;;;;;14.95;2.28;;;16.50;99.90;;;;;;5029478;28;20052;-48
2021/05/14 14:15:35;;;;;;;23.60;3.72;;;16.20;99.90;;;;;;5049803;28;20044;-46
2021/05/14 14:18:38;;;;;;;14.48;1.98;;;16.10;99.90;;;;;;5046695;28;20112;-48
2021/05/14 14:21:43;;;;;;;9.85;2.00;;;16.00;99.90;;;;;;5049281;28;20044;-46
2021/05/14 14:24:47;;;;;;;10.68;2.05;;;16.00;99.90;;;;;;5030012;28;20460;-50
2021/05/14 14:27:51;;;;;;;12.93;2.53;;;15.90;99.90;;;;;;5030062;28;20439;-49
2021/05/14 14:30:55;;;;;;;13.57;2.33;;;16.00;99.90;;;;;;5016564;28;20057;-48
2021/05/14 14:33:59;;;;;;;14.18;2.30;;;16.20;99.90;;;;;;5029893;28;20060;-50
2021/05/14 14:37:04;;;;;;;16.83;2.85;;;16.10;99.90;;;;;;5030288;28;20519;-47
2021/05/14 14:40:10;;;;;;;19.10;2.50;;;16.10;99.90;;;;;;5028686;28;20049;-47
2021/05/14 14:43:14;;;;;;;11.15;1.85;;;16.10;99.90;;;;;;5030104;28;20056;-47
2021/05/14 14:46:19;;;;;;;8.95;2.28;;;15.90;99.90;;;;;;5030298;28;20056;-46
2021/05/14 14:49:24;;;;;;;11.82;2.22;;;15.80;99.90;;;;;;5045854;28;20051;-47
2021/05/14 14:52:29;;;;;;;13.40;3.47;;;15.70;99.90;;;;;;5046543;28;20814;-49
2021/05/14 14:55:33;;;;;;;13.05;2.40;;;15.60;99.90;;;;;;5044420;28;20047;-46
2021/05/14 14:58:37;;;;;;;12.30;2.08;;;15.70;99.90;;;;;;5040868;28;20052;-47
2021/05/14 15:01:42;;;;;;;14.35;3.65;;;15.60;99.90;;;;;;5046314;28;20064;-46
2021/05/14 15:04:48;;;;;;;12.23;2.40;;;15.50;99.90;;;;;;5053674;28;20048;-46
2021/05/14 15:07:53;;;;;;;12.77;2.60;;;15.40;99.90;;;;;;5053307;28;20047;-46
2021/05/14 15:11:01;;;;;;;8.00;2.00;;;15.40;99.90;;;;;;5030023;28;20435;-47
2021/05/14 15:14:08;;;;;;;13.93;2.85;;;15.50;99.90;;;;;;5064560;28;20402;-49
2021/05/14 15:17:13;;;;;;;7.65;1.83;;;15.50;99.90;;;;;;5029394;28;20129;-46
2021/05/14 15:20:17;;;;;;;10.75;2.08;;;15.50;99.90;;;;;;5028342;28;20518;-48
2021/05/14 15:23:22;;;;;;;5.93;1.70;;;15.40;99.90;;;;;;5059654;28;20040;-47
2021/05/14 15:26:26;;;;;;;5.28;1.50;;;15.20;99.90;;;;;;5029970;28;20503;-47
2021/05/14 15:29:31;;;;;;;8.68;1.27;;;15.10;99.90;;;;;;5028768;28;20045;-46
2021/05/14 15:32:36;;;;;;;5.05;1.23;;;15.10;99.90;;;;;;5029338;28;20045;-47
2021/05/14 15:35:42;;;;;;;7.03;1.10;;;15.00;99.90;;;;;;5029202;28;20467;-49
2021/05/14 15:38:47;;;;;;;4.55;0.98;;;14.90;99.90;;;;;;5015928;28;20044;-49
2021/05/14 15:41:51;;;;;;;6.50;2.30;;;14.80;99.90;;;;;;5028300;28;20522;-48
2021/05/14 15:44:55;;;;;;;4.20;1.15;;;14.90;99.90;;;;;;5031506;28;20048;-48
2021/05/14 15:48:00;;;;;;;3.22;0.90;;;14.90;99.90;;;;;;5035092;28;20519;-46
2021/05/14 15:51:06;;;;;;;3.88;0.85;;;15.10;99.90;;;;;;5042053;28;20443;-48
2021/05/14 15:54:10;;;;;;;2.70;0.70;;;15.20;99.90;;;;;;5030130;28;20052;-48
2021/05/14 15:57:15;;;;;;;2.10;0.73;;;15.00;99.90;;;;;;5027771;28;20045;-50
2021/05/14 16:00:21;;;;;;;3.75;0.70;;;14.90;99.90;;;;;;5033237;28;20052;-53
2021/05/14 16:03:30;;;;;;;5.95;0.90;;;15.10;99.90;;;;;;5018822;28;20035;-51
2021/05/14 16:06:36;;;;;;;7.15;0.80;;;15.00;99.90;;;;;;5024136;28;20487;-46